Time,TemperatureF,DewpointF,PressureIn,WindDirection,WindDirectionDegrees,WindSpeedMPH,WindSpeedGustMPH,Humidity,HourlyPrecipIn,Conditions,Clouds,dailyrainin,SoftwareType,DateUTC
2013-04-08 00:02:00,46.0,32.0,-100.00,West,263,10.0,14.0,57,-99.99,,,-99.99,,2013-04-08 07:02:00,
2013-04-08 00:12:00,46.0,32.0,-100.00,West,263,10.0,14.0,57,-99.99,,,-99.99,,2013-04-08 07:12:00,
2013-04-08 01:02:00,47.0,30.0,-100.00,West,279,13.0,20.0,51,-99.99,,,-99.99,,2013-04-08 08:02:00,
2013-04-08 01:12:00,47.0,30.0,-100.00,West,279,13.0,20.0,51,-99.99,,,-99.99,,2013-04-08 08:12:00,
2013-04-08 02:02:00,46.0,30.0,-100.00,NW,304,12.0,13.0,53,-99.99,,,-99.99,,2013-04-08 09:02:00,
2013-04-08 02:12:00,46.0,30.0,-100.00,NW,304,12.0,13.0,53,-99.99,,,-99.99,,2013-04-08 09:12:00,
2013-04-08 03:03:00,45.0,30.0,-100.00,WNW,303,9.0,13.0,55,-99.99,,,-99.99,,2013-04-08 10:03:00,
2013-04-08 03:13:00,45.0,30.0,-100.00,WNW,303,9.0,13.0,55,-99.99,,,-99.99,,2013-04-08 10:13:00,
2013-04-08 04:02:00,44.0,31.0,-100.00,WNW,284,8.0,10.0,59,-99.99,,,-99.99,,2013-04-08 11:02:00,
2013-04-08 04:12:00,44.0,31.0,-100.00,WNW,284,8.0,10.0,59,-99.99,,,-99.99,,2013-04-08 11:12:00,
2013-04-08 05:02:00,43.0,31.0,-100.00,WNW,289,12.0,14.0,62,-99.99,,,-99.99,,2013-04-08 12:02:00,
2013-04-08 05:12:00,43.0,31.0,-100.00,WNW,289,12.0,14.0,62,-99.99,,,-99.99,,2013-04-08 12:12:00,
2013-04-08 06:02:00,41.0,31.0,-100.00,West,261,9.0,12.0,67,-99.99,,,-99.99,,2013-04-08 13:02:00,
2013-04-08 06:12:00,41.0,31.0,-100.00,West,261,9.0,12.0,67,-99.99,,,-99.99,,2013-04-08 13:12:00,
2013-04-08 07:02:00,43.0,32.0,-100.00,WNW,286,8.0,12.0,64,-99.99,,,-99.99,,2013-04-08 14:02:00,
2013-04-08 07:12:00,43.0,32.0,-100.00,WNW,286,8.0,12.0,64,-99.99,,,-99.99,,2013-04-08 14:12:00,
2013-04-08 08:02:00,43.0,36.0,-100.00,West,276,2.0,5.0,76,-99.99,,,-99.99,,2013-04-08 15:02:00,
2013-04-08 08:12:00,43.0,36.0,-100.00,West,276,2.0,5.0,76,-99.99,,,-99.99,,2013-04-08 15:12:00,
2013-04-08 09:03:00,45.0,36.0,-100.00,SW,218,6.0,7.0,70,-99.99,,,-99.99,,2013-04-08 16:03:00,
2013-04-08 09:12:00,45.0,36.0,-100.00,SW,218,6.0,7.0,70,-99.99,,,-99.99,,2013-04-08 16:12:00,
2013-04-08 10:02:00,48.0,35.0,-100.00,WSW,258,6.0,9.0,60,-99.99,,,-99.99,,2013-04-08 17:02:00,
2013-04-08 10:12:00,48.0,35.0,-100.00,WSW,258,6.0,9.0,60,-99.99,,,-99.99,,2013-04-08 17:12:00,
2013-04-08 11:02:00,50.0,33.0,-100.00,NW,307,8.0,12.0,51,-99.99,,,-99.99,,2013-04-08 18:02:00,
2013-04-08 11:12:00,50.0,33.0,-100.00,NW,307,8.0,12.0,51,-99.99,,,-99.99,,2013-04-08 18:12:00,
2013-04-08 12:02:00,52.0,34.0,-100.00,North,10,5.0,9.0,50,-99.99,,,-99.99,,2013-04-08 19:02:00,
2013-04-08 12:12:00,52.0,34.0,-100.00,North,10,5.0,9.0,50,-99.99,,,-99.99,,2013-04-08 19:12:00,
2013-04-08 13:02:00,54.0,34.0,-100.00,NW,317,3.0,10.0,46,-99.99,,,-99.99,,2013-04-08 20:02:00,
2013-04-08 13:12:00,54.0,34.0,-100.00,NW,317,3.0,10.0,46,-99.99,,,-99.99,,2013-04-08 20:12:00,
2013-04-08 14:02:00,54.0,35.0,-100.00,North,3,6.0,12.0,48,-99.99,,,-99.99,,2013-04-08 21:02:00,
2013-04-08 14:12:00,54.0,35.0,-100.00,North,3,6.0,12.0,48,-99.99,,,-99.99,,2013-04-08 21:12:00,
2013-04-08 15:02:00,55.0,34.0,-100.00,NE,41,5.0,12.0,44,-99.99,,,-99.99,,2013-04-08 22:02:00,
2013-04-08 15:12:00,55.0,34.0,-100.00,NE,41,5.0,12.0,44,-99.99,,,-99.99,,2013-04-08 22:12:00,
2013-04-08 16:02:00,56.0,34.0,-100.00,NE,51,3.0,6.0,43,-99.99,,,-99.99,,2013-04-08 23:02:00,
2013-04-08 16:12:00,56.0,34.0,-100.00,NE,51,3.0,6.0,43,-99.99,,,-99.99,,2013-04-08 23:12:00,
2013-04-08 17:02:00,57.0,31.0,-100.00,NE,40,7.0,14.0,37,-99.99,,,-99.99,,2013-04-09 00:02:00,
2013-04-08 17:12:00,57.0,31.0,-100.00,NE,40,7.0,14.0,37,-99.99,,,-99.99,,2013-04-09 00:12:00,
2013-04-08 18:02:00,58.0,28.0,-100.00,NNE,30,5.0,8.0,31,-99.99,,,-99.99,,2013-04-09 01:02:00,
2013-04-08 18:12:00,58.0,28.0,-100.00,NNE,30,5.0,8.0,31,-99.99,,,-99.99,,2013-04-09 01:12:00,
2013-04-08 19:02:00,57.0,32.0,-100.00,East,89,6.0,9.0,38,-99.99,,,-99.99,,2013-04-09 02:02:00,
2013-04-08 19:12:00,57.0,32.0,-100.00,East,89,6.0,9.0,38,-99.99,,,-99.99,,2013-04-09 02:12:00,
2013-04-08 20:02:00,55.0,34.0,-100.00,SE,135,3.0,6.0,44,-99.99,,,-99.99,,2013-04-09 03:02:00,
2013-04-08 20:12:00,55.0,34.0,-100.00,SE,135,3.0,6.0,44,-99.99,,,-99.99,,2013-04-09 03:12:00,
2013-04-08 21:02:00,54.0,37.0,-100.00,South,187,3.0,5.0,52,-99.99,,,-99.99,,2013-04-09 04:02:00,
2013-04-08 21:13:00,54.0,37.0,-100.00,South,187,3.0,5.0,52,-99.99,,,-99.99,,2013-04-09 04:13:00,